createdAt,value
2019-03-26T09:22:13.174Z,42.66
2019-03-26T09:23:13.076Z,42.96
2019-03-26T09:24:13.037Z,41.85
2019-03-26T09:25:12.998Z,41.95
2019-03-26T09:31:27.457Z,47.00
2019-03-26T09:32:27.368Z,48.84
2019-03-26T09:33:27.338Z,52.42
2019-03-26T09:34:27.323Z,54.00
2019-03-26T09:35:27.293Z,55.18
2019-03-26T09:36:27.655Z,57.15
2019-03-26T09:37:28.089Z,58.11
2019-03-26T09:38:38.226Z,58.95
2019-03-26T09:39:28.686Z,59.06
2019-03-26T09:42:04.701Z,59.47
2019-03-26T09:43:04.716Z,59.57
2019-03-26T09:44:04.578Z,59.47
2019-03-26T09:45:04.559Z,58.13
2019-03-26T09:46:04.515Z,60.01
2019-03-26T09:47:15.521Z,56.62
2019-03-26T09:48:05.426Z,56.00
2019-03-26T09:49:32.091Z,57.95
2019-03-26T09:50:32.071Z,57.82
2019-03-26T09:51:32.063Z,55.77
2019-03-26T09:52:32.104Z,56.54
2019-03-26T09:53:32.032Z,56.00
2019-03-26T09:54:32.031Z,54.85
2019-03-26T09:55:32.012Z,53.18
2019-03-26T09:56:32.232Z,55.18
2019-03-26T09:57:32.042Z,51.65
2019-03-26T09:58:31.978Z,50.68
2019-03-26T09:59:31.973Z,50.86
2019-03-26T10:00:32.106Z,46.83
2019-03-26T10:01:31.960Z,44.93
2019-03-26T10:02:31.954Z,47.64
2019-03-26T10:03:31.918Z,47.87
2019-03-26T10:04:31.914Z,45.85
2019-03-26T10:05:31.903Z,46.56
2019-03-26T10:06:31.908Z,45.32
2019-03-26T10:07:31.901Z,45.14
2019-03-26T10:08:31.918Z,46.34
2019-03-26T10:09:31.874Z,46.72
2019-03-26T10:10:31.861Z,48.03
2019-03-26T10:11:31.842Z,44.95
2019-03-26T10:12:31.822Z,42.68
2019-03-26T10:13:32.078Z,43.96
2019-03-26T10:14:31.810Z,43.79
2019-03-26T10:15:31.809Z,41.40
2019-03-26T10:16:31.787Z,42.63
2019-03-26T10:17:31.763Z,42.51
2019-03-26T10:18:31.795Z,42.41
2019-03-26T10:19:31.772Z,42.84
2019-03-26T10:20:31.744Z,42.55
2019-03-26T10:21:31.728Z,42.27
2019-03-26T10:22:31.731Z,43.10
2019-03-26T10:23:31.728Z,42.90
2019-03-26T10:24:31.715Z,40.91
2019-03-26T10:25:31.689Z,44.63
2019-03-26T10:26:31.685Z,46.38
2019-03-26T10:27:34.906Z,46.69
2019-03-26T10:28:31.687Z,47.32
2019-03-26T10:29:31.675Z,47.27
2019-03-26T10:30:31.631Z,48.59
2019-03-26T10:31:31.630Z,47.78
2019-03-26T10:32:31.637Z,48.00
2019-03-26T10:33:31.617Z,48.33
2019-03-26T10:34:31.588Z,47.86
2019-03-26T10:35:31.582Z,49.19
2019-03-26T10:36:31.565Z,49.91
2019-03-26T10:37:31.632Z,50.29
2019-03-26T10:38:31.599Z,52.44
2019-03-26T10:39:31.568Z,51.62
2019-03-26T10:40:31.531Z,52.67
2019-03-26T10:41:31.513Z,52.47
2019-03-26T10:42:31.504Z,52.44
2019-03-26T10:43:31.533Z,52.23
2019-03-26T10:44:31.488Z,52.54
2019-03-26T10:45:31.467Z,52.44
2019-03-26T10:46:31.463Z,51.75
2019-03-26T10:47:31.471Z,52.59
2019-03-26T10:48:31.965Z,52.92
2019-03-26T10:49:31.429Z,54.87
2019-03-26T10:50:31.417Z,54.46
2019-03-26T10:51:31.416Z,54.36
2019-03-26T10:52:34.380Z,54.46
2019-03-26T10:53:31.392Z,54.46
2019-03-26T10:54:31.377Z,54.05
2019-03-26T10:55:31.360Z,54.25
2019-03-26T10:56:32.718Z,54.57
2019-03-26T10:57:31.367Z,54.59
2019-03-26T10:58:31.354Z,54.57
2019-03-26T10:59:31.313Z,54.36
2019-03-26T11:00:31.387Z,53.74
2019-03-26T11:01:31.295Z,54.57
2019-03-26T11:02:31.285Z,54.13
2019-03-26T11:03:31.307Z,52.67
2019-03-26T11:04:31.246Z,52.56
2019-03-26T11:05:31.251Z,53.59
2019-03-26T11:06:31.261Z,54.51
2019-03-26T11:07:31.228Z,53.67
2019-03-26T11:08:31.259Z,52.03
2019-03-26T11:09:31.206Z,53.16
2019-03-26T11:10:31.208Z,53.67
2019-03-26T11:11:31.189Z,52.13
2019-03-26T11:12:31.170Z,53.97
2019-03-26T11:13:31.210Z,55.85
2019-03-26T11:14:31.886Z,55.62
2019-03-26T11:15:31.131Z,56.41
2019-03-26T11:16:31.126Z,54.44
2019-03-26T11:17:31.138Z,55.66
2019-03-26T11:18:31.174Z,54.54
2019-03-26T11:19:31.128Z,55.02
2019-03-26T11:20:31.073Z,55.13
2019-03-26T11:21:31.079Z,53.36
2019-03-26T11:22:31.080Z,53.95
2019-03-26T11:23:31.069Z,53.59
2019-03-26T11:24:31.047Z,51.86
2019-03-26T11:25:31.050Z,51.22
2019-03-26T11:26:31.039Z,51.93
2019-03-26T11:27:31.007Z,51.81
2019-03-26T11:28:31.032Z,51.38
2019-03-26T11:29:30.970Z,52.83
2019-03-26T11:30:30.981Z,52.42
2019-03-26T11:31:30.972Z,51.10
2019-03-26T11:32:30.978Z,49.38
2019-03-26T11:33:30.974Z,50.99
2019-03-26T11:34:30.934Z,51.30
2019-03-26T11:35:30.921Z,49.37
2019-03-26T11:36:30.912Z,49.69
2019-03-26T11:37:30.891Z,50.56
2019-03-26T11:38:30.924Z,50.89
2019-03-26T11:39:33.058Z,50.73
2019-03-26T11:40:30.876Z,52.57
2019-03-26T11:41:30.873Z,51.57
2019-03-26T11:42:30.848Z,52.42
2019-03-26T11:43:30.858Z,52.00
2019-03-26T11:44:30.822Z,53.56
2019-03-26T11:45:30.834Z,52.67
2019-03-26T11:46:30.853Z,53.69
2019-03-26T11:47:30.811Z,54.82
2019-03-26T11:48:30.804Z,54.72
2019-03-26T11:49:30.765Z,54.74
2019-03-26T11:50:30.757Z,55.05
2019-03-26T11:51:30.742Z,56.79
2019-03-26T11:52:30.737Z,56.15
2019-03-26T11:53:30.739Z,56.26
2019-03-26T11:54:30.724Z,56.13
2019-03-26T11:55:30.704Z,55.41
2019-03-26T11:56:30.698Z,55.41
2019-03-26T11:57:30.700Z,55.62
2019-03-26T11:58:31.164Z,55.10
2019-03-26T11:59:30.662Z,55.92
2019-03-26T12:00:30.653Z,54.05
2019-03-26T12:01:30.632Z,54.00
2019-03-26T12:02:30.655Z,56.15
2019-03-26T12:03:30.683Z,55.21
2019-03-26T12:04:30.598Z,55.62
2019-03-26T12:05:30.595Z,55.82
2019-03-26T12:06:30.584Z,54.79
2019-03-26T12:07:30.564Z,54.72
2019-03-26T12:08:30.632Z,54.74
2019-03-26T12:09:30.540Z,56.30
2019-03-26T12:10:30.535Z,57.03
2019-03-26T12:11:30.524Z,57.23
2019-03-26T12:12:30.531Z,58.15
2019-03-26T12:13:30.526Z,57.23
2019-03-26T12:14:30.495Z,56.71
2019-03-26T12:15:30.480Z,57.13
2019-03-26T12:16:30.465Z,56.28
2019-03-26T12:17:30.458Z,56.07
2019-03-26T12:18:30.481Z,56.69
2019-03-26T12:19:30.442Z,57.97
2019-03-26T12:20:30.430Z,57.15
2019-03-26T12:21:30.415Z,56.23
2019-03-26T12:22:31.508Z,56.20
2019-03-26T12:23:30.389Z,55.77
2019-03-26T12:24:30.409Z,56.76
2019-03-26T12:25:30.380Z,54.18
2019-03-26T12:26:30.366Z,54.05
2019-03-26T12:27:30.350Z,54.46
2019-03-26T12:28:30.340Z,53.75
2019-03-26T12:29:30.354Z,53.72
2019-03-26T12:30:30.303Z,52.32
2019-03-26T12:31:30.293Z,53.03
2019-03-26T12:32:30.301Z,53.88
2019-03-26T12:33:30.291Z,55.10
2019-03-26T12:34:30.301Z,53.98
2019-03-26T12:35:30.244Z,54.21
2019-03-26T12:36:39.949Z,55.33
2019-03-26T12:37:31.281Z,54.74
2019-03-26T12:38:30.222Z,54.41
2019-03-26T12:39:30.211Z,54.41
2019-03-26T12:40:30.201Z,54.10
2019-03-26T12:41:30.187Z,54.51
2019-03-26T12:42:30.249Z,54.10
2019-03-26T12:43:30.181Z,52.57
2019-03-26T12:44:30.155Z,53.62
2019-03-26T12:45:30.153Z,54.13
2019-03-26T12:46:30.135Z,53.52
2019-03-26T12:47:30.147Z,53.31
2019-03-26T12:48:30.113Z,53.69
2019-03-26T12:49:30.113Z,52.37
2019-03-26T12:50:32.180Z,53.82
2019-03-26T12:51:30.077Z,53.72
2019-03-26T12:52:30.182Z,53.44
2019-03-26T12:53:30.065Z,53.97
2019-03-26T12:54:30.094Z,54.85
2019-03-26T12:55:30.086Z,55.26
2019-03-26T12:56:30.035Z,55.66
2019-03-26T12:57:30.016Z,56.05
2019-03-26T12:58:32.154Z,54.82
2019-03-26T12:59:30.049Z,54.69
2019-03-26T13:00:30.012Z,56.13
2019-03-26T13:01:29.987Z,55.08
2019-03-26T13:02:29.944Z,54.46
2019-03-26T13:03:29.977Z,56.05
2019-03-26T13:04:29.943Z,54.90
2019-03-26T13:05:30.831Z,54.26
2019-03-26T13:06:29.903Z,53.92
2019-03-26T13:07:29.913Z,52.27
2019-03-26T13:08:29.927Z,51.25
2019-03-26T13:09:29.876Z,51.93
2019-03-26T13:10:29.893Z,51.30
2019-03-26T13:11:29.881Z,51.63
2019-03-26T13:12:29.861Z,50.81
2019-03-26T13:13:29.884Z,51.35
2019-03-26T13:14:29.832Z,51.96
2019-03-26T13:15:29.818Z,51.93
2019-03-26T13:16:29.793Z,51.12
2019-03-26T13:17:29.791Z,51.30
2019-03-26T13:18:29.831Z,50.79
2019-03-26T13:19:29.772Z,51.91
2019-03-26T13:20:29.753Z,51.91
2019-03-26T13:21:29.778Z,50.10
2019-03-26T13:22:29.738Z,51.02
2019-03-26T13:23:29.758Z,50.89
2019-03-26T13:24:29.717Z,49.37
2019-03-26T13:25:29.717Z,50.81
2019-03-26T13:26:29.684Z,50.81
2019-03-26T13:27:29.684Z,52.01
2019-03-26T13:28:29.692Z,51.61
2019-03-26T13:29:29.654Z,50.74
2019-03-26T13:30:29.661Z,52.37
2019-03-26T13:31:29.637Z,53.52
2019-03-26T13:32:29.611Z,52.29
2019-03-26T13:33:29.647Z,52.47
2019-03-26T13:34:29.600Z,52.27
2019-03-26T13:35:29.582Z,52.06
2019-03-26T13:36:29.579Z,53.29
2019-03-26T13:37:29.580Z,52.17
2019-03-26T13:38:29.574Z,52.47
2019-03-26T13:39:29.543Z,52.88
2019-03-26T13:40:29.542Z,53.52
2019-03-26T13:41:29.529Z,52.42
2019-03-26T13:42:29.510Z,52.06
2019-03-26T13:43:29.534Z,54.10
2019-03-26T13:44:29.497Z,54.44
2019-03-26T13:45:32.501Z,53.72
2019-03-26T13:46:29.469Z,54.08
2019-03-26T13:47:29.455Z,55.36
2019-03-26T13:48:29.497Z,56.49
2019-03-26T13:49:29.466Z,57.82
2019-03-26T13:50:29.419Z,57.41
2019-03-26T13:51:29.445Z,58.54
2019-03-26T13:52:29.396Z,59.69
2019-03-26T13:53:29.467Z,58.64
2019-03-26T13:54:29.401Z,58.23
2019-03-26T13:55:29.382Z,57.33
2019-03-26T13:56:29.373Z,57.95
2019-03-26T13:57:29.349Z,58.90
2019-03-26T13:58:29.361Z,58.39
2019-03-26T13:59:29.339Z,58.72
2019-03-26T14:00:29.311Z,59.36
2019-03-26T14:01:29.293Z,59.88
2019-03-26T14:02:29.301Z,60.49
2019-03-26T14:03:29.308Z,59.98
2019-03-26T14:04:29.267Z,60.60
2019-03-26T14:05:29.265Z,59.88
2019-03-26T14:06:32.342Z,59.98
2019-03-26T14:07:29.235Z,59.67
2019-03-26T14:08:29.262Z,59.88
2019-03-26T14:09:29.237Z,59.77
2019-03-26T14:10:40.159Z,59.47
2019-03-26T14:11:30.191Z,60.29
2019-03-26T14:12:29.254Z,60.49
2019-03-26T14:13:29.201Z,59.54
2019-03-26T14:14:29.169Z,60.36
2019-03-26T14:15:29.150Z,60.39
2019-03-26T14:16:29.136Z,60.19
2019-03-26T14:17:29.144Z,61.11
2019-03-26T14:18:29.180Z,61.83
2019-03-26T14:19:29.132Z,62.41
2019-03-26T14:20:29.100Z,61.62
2019-03-26T14:21:29.086Z,61.42
2019-03-26T14:22:29.075Z,61.72
2019-03-26T14:23:29.101Z,60.91
2019-03-26T14:24:29.048Z,61.62
2019-03-26T14:25:29.062Z,62.14
2019-03-26T14:26:29.052Z,61.62
2019-03-26T14:27:29.031Z,61.52
2019-03-26T14:28:29.122Z,61.55
2019-03-26T14:29:29.000Z,62.60
2019-03-26T14:30:28.982Z,63.22
2019-03-26T14:31:28.964Z,62.48
2019-03-26T14:32:28.978Z,62.45
2019-03-26T14:33:28.963Z,61.93
2019-03-26T14:34:28.998Z,61.62
2019-03-26T14:35:28.956Z,61.62
2019-03-26T14:36:28.924Z,61.60
2019-03-26T14:37:28.924Z,61.08
2019-03-26T14:38:28.906Z,61.60
2019-03-26T14:39:28.920Z,61.60
2019-03-26T14:40:28.989Z,61.90
2019-03-26T14:41:28.863Z,63.10
2019-03-26T14:42:28.870Z,63.00
2019-03-26T14:43:28.854Z,62.80
2019-03-26T14:44:28.874Z,62.29
2019-03-26T14:45:28.844Z,62.49
2019-03-26T14:46:28.821Z,62.05
2019-03-26T14:47:28.807Z,62.26
2019-03-26T14:48:28.793Z,61.13
2019-03-26T14:49:28.810Z,61.57
2019-03-26T14:50:28.793Z,61.46
2019-03-26T14:51:28.764Z,60.75
2019-03-26T14:52:28.755Z,61.05
2019-03-26T14:53:28.761Z,60.95
2019-03-26T14:54:28.755Z,61.36
2019-03-26T14:55:28.732Z,60.77
2019-03-26T14:56:28.732Z,60.88
2019-03-26T14:57:28.698Z,61.26
2019-03-26T14:58:28.682Z,60.64
2019-03-26T14:59:28.727Z,61.70
2019-03-26T15:00:28.660Z,61.26
2019-03-26T15:01:28.655Z,61.67
2019-03-26T15:02:28.650Z,61.87
2019-03-26T15:03:28.681Z,61.77
2019-03-26T15:04:28.675Z,61.44
2019-03-26T15:05:28.628Z,61.74
2019-03-26T15:06:28.603Z,61.23
2019-03-26T15:07:28.602Z,61.64
2019-03-26T15:08:28.579Z,61.33
2019-03-26T15:09:28.592Z,60.72
2019-03-26T15:10:28.567Z,60.64
2019-03-26T15:11:28.584Z,61.74
2019-03-26T15:12:28.537Z,61.44
2019-03-26T15:13:28.528Z,61.23
2019-03-26T15:14:28.539Z,61.67
2019-03-26T15:15:28.517Z,60.75
2019-03-26T15:16:28.488Z,61.42
2019-03-26T15:17:28.484Z,62.04
2019-03-26T15:18:28.480Z,62.24
2019-03-26T15:19:28.491Z,62.45
2019-03-26T15:20:28.450Z,63.06
2019-03-26T15:21:28.437Z,62.55
2019-03-26T15:22:28.428Z,62.55
2019-03-26T15:23:28.444Z,62.65
2019-03-26T15:24:28.468Z,63.47
2019-03-26T15:25:28.403Z,62.45
2019-03-26T15:26:28.382Z,64.12
2019-03-26T15:27:28.370Z,62.88
2019-03-26T15:28:28.360Z,64.63
2019-03-26T15:29:28.350Z,65.05
2019-03-26T15:30:28.380Z,64.46
2019-03-26T15:31:28.336Z,65.28
2019-03-26T15:32:28.320Z,65.59
2019-03-26T15:33:28.376Z,65.17
2019-03-26T15:34:35.940Z,66.51
2019-03-26T15:35:29.301Z,67.03
2019-03-26T15:36:28.322Z,66.20
2019-03-26T15:37:28.270Z,65.38
2019-03-26T15:38:28.261Z,65.89
2019-03-26T15:39:28.238Z,66.51
2019-03-26T15:40:28.251Z,66.51
2019-03-26T15:41:30.255Z,66.93
2019-03-26T15:42:28.213Z,65.89
2019-03-26T15:43:28.200Z,66.00
2019-03-26T15:44:28.212Z,65.38
2019-03-26T15:45:28.204Z,66.10
2019-03-26T15:46:28.169Z,65.80
2019-03-26T15:47:28.162Z,66.41
2019-03-26T15:48:28.165Z,65.89
2019-03-26T15:49:28.152Z,65.89
2019-03-26T15:50:28.150Z,65.17
2019-03-26T15:51:28.102Z,65.38
2019-03-26T15:52:28.108Z,65.48
2019-03-26T15:53:28.085Z,65.80
2019-03-26T15:54:28.071Z,66.20
2019-03-26T15:55:28.107Z,66.10
2019-03-26T15:56:28.048Z,65.80
2019-03-26T15:57:28.060Z,65.38
2019-03-26T15:58:28.034Z,65.89
2019-03-26T15:59:28.030Z,65.28
2019-03-26T16:00:28.068Z,65.38
2019-03-26T16:01:28.020Z,65.59
2019-03-26T16:02:27.989Z,65.08
2019-03-26T16:03:28.009Z,65.08
2019-03-26T16:04:27.971Z,64.97
2019-03-26T16:05:28.004Z,64.97
2019-03-26T16:06:27.944Z,65.17
2019-03-26T16:07:27.943Z,65.38
2019-03-26T16:08:27.928Z,65.48
2019-03-26T16:09:27.923Z,65.17
2019-03-26T16:10:27.968Z,65.69
2019-03-26T16:11:35.590Z,65.17
2019-03-26T16:12:40.597Z,65.28
2019-03-26T16:13:28.901Z,64.66
2019-03-26T16:14:28.262Z,65.20
2019-03-26T16:15:27.894Z,65.52
2019-03-26T16:16:27.853Z,66.51
2019-03-26T16:17:27.841Z,65.17
2019-03-26T16:18:27.824Z,65.17
2019-03-26T16:19:32.766Z,65.20
2019-03-26T16:20:28.815Z,65.62
2019-03-26T16:21:27.891Z,65.72
2019-03-26T16:22:27.769Z,66.24
2019-03-26T16:23:27.756Z,66.34
2019-03-26T16:24:27.745Z,66.75
2019-03-26T16:25:27.773Z,65.62
2019-03-26T16:26:27.727Z,65.92
2019-03-26T16:27:27.749Z,66.34
2019-03-26T16:28:27.701Z,66.54
2019-03-26T16:29:27.703Z,66.13
2019-03-26T16:30:27.706Z,66.13
2019-03-26T16:31:27.707Z,67.36
2019-03-26T16:32:27.654Z,66.24
2019-03-26T16:33:27.658Z,67.06
2019-03-26T16:34:27.645Z,67.47
2019-03-26T16:35:27.688Z,68.19
2019-03-26T16:36:27.634Z,68.40
2019-03-26T16:37:27.597Z,68.80
2019-03-26T16:38:27.593Z,68.91
2019-03-26T16:39:27.593Z,69.01
2019-03-26T16:40:27.618Z,69.22
2019-03-26T16:41:27.595Z,69.63
2019-03-26T16:42:27.574Z,69.32
2019-03-26T16:43:27.543Z,69.53
2019-03-26T16:44:27.536Z,69.42
2019-03-26T16:45:27.573Z,69.42
2019-03-26T16:46:27.509Z,69.73
2019-03-26T16:47:27.515Z,69.63
2019-03-26T16:48:27.490Z,70.14
2019-03-26T16:49:27.489Z,69.94
2019-03-26T16:50:27.484Z,70.14
2019-03-26T16:51:27.449Z,69.94
2019-03-26T16:52:27.440Z,70.56
2019-03-26T16:53:27.439Z,70.97
2019-03-26T16:54:27.442Z,70.86
2019-03-26T16:55:27.449Z,70.59
2019-03-26T16:56:27.413Z,70.69
2019-03-26T16:57:27.385Z,70.79
2019-03-26T16:58:27.384Z,71.20
2019-03-26T16:59:27.377Z,71.20
2019-03-26T17:00:27.890Z,71.20
2019-03-26T17:01:27.337Z,71.62
2019-03-26T17:02:27.326Z,71.62
2019-03-26T17:03:31.540Z,72.24
2019-03-26T17:04:27.309Z,71.82
2019-03-26T17:05:27.327Z,71.82
2019-03-26T17:06:27.287Z,71.20
2019-03-26T17:07:27.371Z,71.72
2019-03-26T17:08:27.281Z,71.20
2019-03-26T17:09:27.255Z,72.13
2019-03-26T17:10:27.269Z,71.20
2019-03-26T17:11:27.252Z,71.00
2019-03-26T17:12:27.226Z,71.62
2019-03-26T17:13:27.235Z,71.00
2019-03-26T17:14:27.192Z,71.62
2019-03-26T17:15:27.208Z,71.20
2019-03-26T17:16:27.199Z,70.90
2019-03-26T17:17:27.178Z,70.79
2019-03-26T17:18:27.156Z,71.00
2019-03-26T17:19:27.156Z,71.62
2019-03-26T17:20:27.185Z,71.51
2019-03-26T17:21:27.113Z,71.31
2019-03-26T17:22:27.125Z,71.14
2019-03-26T17:23:27.108Z,70.83
2019-03-26T17:24:27.105Z,70.79
2019-03-26T17:25:27.118Z,70.07
2019-03-26T17:26:27.068Z,70.38
2019-03-26T17:27:29.107Z,70.38
2019-03-26T17:28:27.080Z,70.07
2019-03-26T17:29:27.041Z,69.97
2019-03-26T17:30:27.130Z,70.79
2019-03-26T17:31:27.023Z,70.38
2019-03-26T17:32:27.015Z,71.31
2019-03-26T17:33:28.999Z,70.69
2019-03-26T17:34:26.992Z,71.10
2019-03-26T17:35:27.013Z,71.00
2019-03-26T17:36:26.975Z,70.59
2019-03-26T17:37:26.957Z,70.90
2019-03-26T17:38:26.940Z,70.48
2019-03-26T17:39:26.916Z,70.18
2019-03-26T17:40:26.964Z,69.66
2019-03-26T17:41:26.916Z,70.59
2019-03-26T17:42:26.904Z,70.59
2019-03-26T17:43:26.885Z,70.83
2019-03-26T17:44:26.875Z,70.93
2019-03-26T17:45:26.905Z,70.72
2019-03-26T17:46:26.854Z,71.37
2019-03-26T17:47:26.856Z,72.37
2019-03-26T17:48:26.835Z,72.30
2019-03-26T17:49:26.839Z,72.06
2019-03-26T17:50:26.865Z,72.16
2019-03-26T17:51:26.794Z,72.09
2019-03-26T17:52:26.777Z,72.58
2019-03-26T17:53:26.823Z,72.51
2019-03-26T17:54:26.772Z,72.71
2019-03-26T17:55:26.770Z,72.47
2019-03-26T17:56:26.734Z,72.16
2019-03-26T17:57:26.765Z,72.81
2019-03-26T17:58:26.750Z,72.41
2019-03-26T17:59:26.712Z,72.16
2019-03-26T18:00:26.771Z,72.16
2019-03-26T18:01:26.684Z,72.71
2019-03-26T18:02:26.673Z,72.47
2019-03-26T18:03:27.122Z,73.54
2019-03-26T18:04:26.642Z,72.68
2019-03-26T18:05:26.647Z,73.95
2019-03-26T18:06:26.656Z,72.37
2019-03-26T18:07:26.610Z,73.19
2019-03-26T18:08:26.613Z,72.47
2019-03-26T18:09:26.648Z,73.81
2019-03-26T18:10:26.596Z,72.88
2019-03-26T18:11:26.605Z,73.71
2019-03-26T18:12:31.180Z,73.13
2019-03-26T18:13:26.547Z,72.41
2019-03-26T18:14:26.554Z,73.23
2019-03-26T18:15:26.558Z,73.19
2019-03-26T18:16:26.567Z,73.50
2019-03-26T18:17:26.531Z,73.64
2019-03-26T18:18:26.538Z,73.95
2019-03-26T18:19:26.525Z,73.95
2019-03-26T18:20:32.340Z,73.13
2019-03-26T18:21:27.514Z,73.23
2019-03-26T18:22:26.467Z,73.95
2019-03-26T18:23:26.436Z,74.36
2019-03-26T18:24:26.435Z,74.88
2019-03-26T18:25:26.461Z,74.88
2019-03-26T18:26:26.449Z,74.26
2019-03-26T18:27:26.435Z,74.57
2019-03-26T18:28:26.451Z,74.16
2019-03-26T18:29:26.370Z,73.74
2019-03-26T18:30:26.404Z,73.13
2019-03-26T18:31:26.406Z,74.67
2019-03-26T18:32:26.345Z,75.29
2019-03-26T18:33:26.343Z,74.98
2019-03-26T18:34:26.318Z,74.67
2019-03-26T18:35:26.315Z,74.88
2019-03-26T18:36:26.337Z,74.88
2019-03-26T18:37:26.336Z,75.49
2019-03-26T18:38:26.276Z,75.49
2019-03-26T18:39:26.273Z,75.73
2019-03-26T18:40:26.275Z,76.56
2019-03-26T18:41:26.300Z,75.43
2019-03-26T18:42:26.240Z,75.43
2019-03-26T18:43:28.017Z,75.18
2019-03-26T18:44:26.237Z,75.73
2019-03-26T18:45:26.248Z,75.12
2019-03-26T18:46:26.240Z,75.60
2019-03-26T18:47:26.202Z,75.63
2019-03-26T18:48:26.799Z,75.39
2019-03-26T18:49:26.159Z,75.60
2019-03-26T18:50:26.150Z,75.70
2019-03-26T18:51:26.213Z,74.57
2019-03-26T18:52:26.127Z,74.77
2019-03-26T18:53:26.128Z,75.01
2019-03-26T18:54:26.125Z,74.57
2019-03-26T18:55:26.084Z,74.91
2019-03-26T18:56:26.137Z,73.98
2019-03-26T18:57:26.070Z,73.88
2019-03-26T18:58:26.115Z,74.98
2019-03-26T18:59:26.063Z,74.71
2019-03-26T19:00:26.031Z,73.64
2019-03-26T19:01:26.054Z,73.78
2019-03-26T19:02:26.032Z,74.16
2019-03-26T19:03:25.989Z,74.29
2019-03-26T19:04:26.053Z,74.29
2019-03-26T19:05:25.992Z,73.98
2019-03-26T19:06:26.040Z,74.50
2019-03-26T19:07:25.994Z,74.19
2019-03-26T19:08:26.023Z,74.50
2019-03-26T19:09:25.934Z,74.60
2019-03-26T19:10:25.983Z,74.60
2019-03-26T19:11:26.032Z,74.91
2019-03-26T19:12:25.905Z,74.60
2019-03-26T19:13:25.898Z,74.80
2019-03-26T19:14:25.878Z,73.98
2019-03-26T19:15:25.899Z,74.60
2019-03-26T19:16:25.927Z,73.47
2019-03-26T19:17:25.849Z,74.08
2019-03-26T19:18:25.856Z,74.71
2019-03-26T19:19:25.872Z,73.68
2019-03-26T19:20:25.826Z,73.57
2019-03-26T19:21:25.867Z,73.16
2019-03-26T19:22:25.795Z,72.96
2019-03-26T19:23:25.804Z,73.47
2019-03-26T19:24:25.808Z,73.19
2019-03-26T19:25:25.838Z,73.68
2019-03-26T19:26:25.773Z,73.30
2019-03-26T19:27:25.739Z,73.36
2019-03-26T19:28:25.771Z,72.85
2019-03-26T19:29:25.743Z,73.47
2019-03-26T19:30:25.728Z,73.57
2019-03-26T19:31:25.726Z,74.80
2019-03-26T19:32:25.712Z,73.30
2019-03-26T19:33:25.701Z,73.05
2019-03-26T19:34:25.689Z,73.47
2019-03-26T19:35:25.690Z,73.78
2019-03-26T19:36:25.768Z,73.36
2019-03-26T19:37:25.639Z,74.40
2019-03-26T19:38:25.667Z,72.13
2019-03-26T19:39:25.671Z,72.33
2019-03-26T19:40:25.600Z,72.44
2019-03-26T19:41:25.693Z,72.33
2019-03-26T19:42:25.591Z,72.88
2019-03-26T19:43:25.561Z,73.60
2019-03-26T19:44:25.593Z,72.99
2019-03-26T19:45:25.544Z,73.71
2019-03-26T19:46:25.625Z,73.40
2019-03-26T19:47:25.532Z,73.19
2019-03-26T19:48:25.547Z,73.91
2019-03-26T19:49:25.506Z,72.78
2019-03-26T19:50:25.567Z,72.47
2019-03-26T19:51:25.517Z,73.50
2019-03-26T19:52:25.474Z,73.81
2019-03-26T19:53:25.525Z,73.40
2019-03-26T19:54:25.483Z,74.63
2019-03-26T19:55:25.421Z,73.81
2019-03-26T19:56:25.484Z,74.43
2019-03-26T19:57:25.440Z,73.50
2019-03-26T19:58:25.407Z,73.81
2019-03-26T19:59:25.398Z,73.64
2019-03-26T20:00:26.819Z,73.60
2019-03-26T20:01:25.409Z,74.74
2019-03-26T20:02:25.382Z,74.98
2019-03-26T20:03:25.423Z,75.60
2019-03-26T20:04:25.360Z,74.77
2019-03-26T20:05:25.335Z,74.98
2019-03-26T20:06:25.334Z,73.64
2019-03-26T20:07:25.310Z,73.74
2019-03-26T20:08:25.296Z,73.95
2019-03-26T20:09:25.313Z,73.85
2019-03-26T20:10:25.399Z,74.98
2019-03-26T20:11:25.332Z,73.02
2019-03-26T20:12:25.253Z,73.43
2019-03-26T20:13:25.300Z,74.36
2019-03-26T20:14:25.257Z,73.74
2019-03-26T20:15:25.237Z,73.54
2019-03-26T20:16:27.336Z,73.54
2019-03-26T20:17:25.192Z,73.95
2019-03-26T20:18:25.198Z,74.46
2019-03-26T20:19:25.197Z,72.81
2019-03-26T20:20:25.150Z,73.54
2019-03-26T20:21:25.163Z,72.81
2019-03-26T20:22:25.174Z,73.33
2019-03-26T20:23:25.148Z,72.92
2019-03-26T20:24:25.220Z,73.85
2019-03-26T20:25:25.090Z,72.71
2019-03-26T20:26:25.143Z,73.85
2019-03-26T20:27:25.154Z,74.02
2019-03-26T20:28:26.737Z,73.81
2019-03-26T20:29:25.060Z,74.53
2019-03-26T20:30:25.098Z,73.50
2019-03-26T20:31:25.084Z,72.67
2019-03-26T20:32:25.057Z,72.06
2019-03-26T20:33:25.064Z,72.88
2019-03-26T20:34:24.998Z,72.58
2019-03-26T20:35:24.992Z,72.58
2019-03-26T20:36:24.984Z,72.58
2019-03-26T20:37:25.020Z,72.67
2019-03-26T20:38:24.982Z,73.19
2019-03-26T20:39:24.986Z,72.58
2019-03-26T20:40:24.993Z,72.67
2019-03-26T20:41:24.915Z,71.85
2019-03-26T20:42:24.956Z,72.58
2019-03-26T20:43:36.856Z,73.40
2019-03-26T20:44:25.902Z,71.75
2019-03-26T20:45:24.892Z,71.75
2019-03-26T20:46:24.884Z,72.06
2019-03-26T20:47:24.896Z,71.85
2019-03-26T20:48:24.849Z,71.23
2019-03-26T20:49:24.838Z,71.23
2019-03-26T20:50:24.860Z,71.85
2019-03-26T20:51:24.831Z,72.99
2019-03-26T20:52:24.904Z,72.06
2019-03-26T20:53:24.815Z,72.27
2019-03-26T20:54:24.803Z,71.95
2019-03-26T20:55:24.764Z,72.67
2019-03-26T20:56:24.782Z,72.06
2019-03-26T20:57:24.808Z,71.44
2019-03-26T20:58:24.744Z,71.55
2019-03-26T20:59:24.734Z,71.23
2019-03-26T21:00:24.722Z,71.55
2019-03-26T21:01:24.745Z,72.06
2019-03-26T21:02:24.756Z,71.85
2019-03-26T21:03:24.681Z,71.85
2019-03-26T21:04:24.679Z,71.95
2019-03-26T21:05:24.693Z,73.50
2019-03-26T21:06:24.659Z,72.58
2019-03-26T21:07:24.677Z,72.09
2019-03-26T21:08:24.646Z,72.19
2019-03-26T21:09:24.652Z,71.58
2019-03-26T21:10:24.624Z,72.61
2019-03-26T21:11:24.621Z,72.19
2019-03-26T21:12:24.631Z,72.40
2019-03-26T21:13:24.581Z,72.92
2019-03-26T21:14:24.566Z,72.30
2019-03-26T21:15:24.565Z,72.09
2019-03-26T21:16:24.539Z,72.09
2019-03-26T21:17:24.562Z,71.64
2019-03-26T21:18:24.521Z,72.99
2019-03-26T21:19:24.535Z,72.27
2019-03-26T21:20:24.500Z,72.16
2019-03-26T21:21:24.489Z,71.64
2019-03-26T21:22:24.519Z,71.75
2019-03-26T21:23:24.487Z,71.75
2019-03-26T21:24:24.493Z,71.13
2019-03-26T21:25:24.434Z,70.92
2019-03-26T21:26:24.449Z,71.64
2019-03-26T21:27:24.451Z,71.34
2019-03-26T21:28:24.445Z,71.37
2019-03-26T21:29:24.415Z,70.82
2019-03-26T21:30:24.410Z,72.16
2019-03-26T21:31:24.374Z,71.26
2019-03-26T21:32:24.398Z,71.78
2019-03-26T21:33:24.364Z,71.47
2019-03-26T21:34:30.460Z,71.99
2019-03-26T21:35:28.726Z,71.06
2019-03-26T21:36:24.397Z,70.86
2019-03-26T21:37:24.344Z,71.78
2019-03-26T21:38:24.334Z,71.78
2019-03-26T21:39:24.300Z,71.78
2019-03-26T21:40:24.316Z,71.68
2019-03-26T21:41:24.303Z,71.58
2019-03-26T21:42:24.313Z,70.86
2019-03-26T21:43:24.257Z,72.09
2019-03-26T21:44:24.254Z,71.37
2019-03-26T21:45:24.235Z,71.89
2019-03-26T21:46:24.213Z,71.26
2019-03-26T21:47:24.250Z,72.02
2019-03-26T21:48:24.759Z,71.99
2019-03-26T21:49:24.203Z,71.16
2019-03-26T21:50:24.179Z,70.96
2019-03-26T21:51:24.174Z,71.47
2019-03-26T21:52:24.189Z,71.37
2019-03-26T21:53:24.191Z,72.50
2019-03-26T21:54:24.151Z,71.58
2019-03-26T21:55:24.111Z,72.71
2019-03-26T21:56:24.154Z,72.61
2019-03-26T21:57:24.129Z,71.99
2019-03-26T21:58:24.118Z,71.99
2019-03-26T21:59:24.090Z,72.30
2019-03-26T22:00:24.075Z,72.30
2019-03-26T22:01:24.106Z,72.19
2019-03-26T22:02:24.079Z,72.71
2019-03-26T22:03:24.074Z,72.92
2019-03-26T22:04:24.022Z,73.43
2019-03-26T22:05:24.060Z,73.22
2019-03-26T22:06:23.994Z,73.02
2019-03-26T22:07:24.009Z,72.81
2019-03-26T22:08:24.009Z,71.99
2019-03-26T22:09:23.964Z,72.92
2019-03-26T22:10:23.971Z,73.98
2019-03-26T22:11:23.970Z,72.19
2019-03-26T22:12:23.969Z,72.19
2019-03-26T22:13:23.955Z,72.92
2019-03-26T22:14:23.915Z,73.33
2019-03-26T22:15:23.979Z,72.61
2019-03-26T22:16:23.891Z,72.50
2019-03-26T22:17:23.908Z,72.09
2019-03-26T22:18:23.885Z,72.09
2019-03-26T22:19:28.780Z,71.99
2019-03-26T22:20:24.858Z,73.33
2019-03-26T22:21:23.844Z,72.71